Catalina Duchess — WDD2049 — position and weather

sailwx.info

Track history (hours):
 
Tides and Currents Weather Stations Pressure Air Temp Water Temp Dewpoint Dewpoint Depression Visibility Wind Speed Wind Dir Waves Ship Positions

Catalina Duchess

Owner: CATALINA CLASSIC CRUISES, INC., SAN DIEGO, CA. More information available from US FCC via Universal Licensing System and Coast Guard Vessel Documentation Center.

Last reported at 2018-Jul-18 05:19 UTC. Time now 2018-Jul-19 13:32 UTC.
Position N 33°45' W 118°12'.

Length 31 m; draft 2.5 m.

Type: Ship. MMSI: 367110260.

Date/timePositionNaut miles runAvg speedWind from/ knotsBaromVisibWave heightAir tempDewpointWater temp
2018-Jul-18 05:19N 33°45' W 118°12'1 1.6
2018-Jul-18 05:00N 33°46' W 118°12'0 0.0
2018-Jul-18 04:30N 33°46' W 118°12'0 0.0
2018-Jul-18 04:00N 33°46' W 118°12'0 0.0
2018-Jul-18 03:30N 33°46' W 118°12'1 1.0
2018-Jul-18 03:00N 33°45' W 118°12'1 1.2
2018-Jul-18 02:30N 33°45' W 118°11'1 1.6
2018-Jul-18 02:00N 33°46' W 118°12'0 0.9
2018-Jul-18 01:30N 33°45' W 118°12'0 0.0
2018-Jul-18 01:00N 33°45' W 118°12'0 0.0
2018-Jul-18 00:29N 33°45' W 118°12'0 0.0
2018-Jul-18 00:00N 33°45' W 118°12'0 0.0
2018-Jul-16 21:01N 33°45' W 118°12'0 0.0
2018-Jul-16 21:00N 33°45' W 118°12'5 9.6
2018-Jul-16 20:31N 33°40' W 118°11'713.0
2018-Jul-16 20:00N 33°35' W 118°15'612.6
2018-Jul-16 19:30N 33°29' W 118°19'6 9.3
2018-Jul-16 18:50N 33°24' W 118°22'1 1.8
2018-Jul-16 18:26N 33°24' W 118°22'512.5
2018-Jul-16 18:00N 33°29' W 118°19'612.6
2018-Jul-16 17:30N 33°35' W 118°16'612.4
2018-Jul-16 17:00N 33°40' W 118°12'510.0
2018-Jul-16 16:30N 33°45' W 118°11'0 0.1
2018-Jul-16 16:00N 33°45' W 118°12'0 0.0
2018-Jul-16 15:30N 33°45' W 118°12'0 0.0
2018-Jul-15 21:59N 33°45' W 118°12'0 0.0
2018-Jul-15 21:30N 33°45' W 118°12'0 0.0
2018-Jul-15 21:01N 33°45' W 118°12'5 9.6
2018-Jul-15 20:30N 33°40' W 118°12'713.7
2018-Jul-15 20:00N 33°34' W 118°16'713.3
2018-Jul-15 19:30N 33°28' W 118°19'511.0
2018-Jul-15 19:00N 33°24' W 118°22'3 5.7
2018-Jul-15 18:30N 33°26' W 118°21'713.2
2018-Jul-15 18:00N 33°32' W 118°18'612.7
2018-Jul-15 17:30N 33°38' W 118°14'612.9
2018-Jul-15 17:00N 33°44' W 118°11'2 3.1
2018-Jul-15 16:30N 33°45' W 118°12'0 0.0
2018-Jul-15 16:00N 33°45' W 118°12'0 0.0
2018-Jul-14 22:30N 33°45' W 118°12'0 0.1
2018-Jul-14 22:00N 33°45' W 118°12'0 0.1
2018-Jul-14 21:12N 33°45' W 118°12'0 0.0
2018-Jul-14 21:00N 33°45' W 118°12'4 8.5
2018-Jul-14 20:30N 33°41' W 118°11'713.3
2018-Jul-14 20:00N 33°35' W 118°15'713.1
2018-Jul-14 19:26N 33°29' W 118°19'511.4
2018-Jul-14 19:00N 33°24' W 118°22'0 0.0
2018-Jul-14 18:30N 33°24' W 118°22'611.4
2018-Jul-14 18:00N 33°29' W 118°19'612.9
2018-Jul-14 17:30N 33°35' W 118°15'612.6
2018-Jul-14 17:00N 33°41' W 118°12'5 9.1
2018-Jul-14 16:30N 33°45' W 118°12'0 0.0
2018-Jul-13 21:14N 33°45' W 118°12'2 6.5
2018-Jul-13 21:00N 33°44' W 118°11'612.7
2018-Jul-13 20:31N 33°38' W 118°12'712.8
2018-Jul-13 20:00N 33°32' W 118°16'612.7
2018-Jul-13 19:30N 33°26' W 118°20'3 5.5
2018-Jul-13 18:52N 33°24' W 118°22'0 0.1
2018-Jul-13 18:26N 33°24' W 118°22'512.1
2018-Jul-13 17:59N 33°28' W 118°19'612.6
2018-Jul-13 17:30N 33°34' W 118°16'612.4
2018-Jul-13 17:01N 33°39' W 118°13'611.7
2018-Jul-13 16:30N 33°45' W 118°11'0 0.6
2018-Jul-13 16:00N 33°45' W 118°12'0 0.0
2018-Jul-13 15:30N 33°45' W 118°12'  
2018-Jul-10 21:12N 33°45' W 118°12'1 5.3
2018-Jul-10 21:00N 33°44' W 118°11'612.1
2018-Jul-10 20:30N 33°39' W 118°13'611.7
2018-Jul-10 20:00N 33°33' W 118°16'612.3
2018-Jul-10 19:30N 33°28' W 118°19'5 9.9
2018-Jul-10 19:00N 33°24' W 118°22'0 0.9
2018-Jul-10 18:30N 33°24' W 118°22'612.3
2018-Jul-10 18:00N 33°30' W 118°19'612.3
2018-Jul-10 17:30N 33°35' W 118°16'612.4
2018-Jul-10 17:00N 33°41' W 118°12'5 9.1
2018-Jul-10 16:29N 33°45' W 118°12'0 0.0
2018-Jul-10 16:00N 33°45' W 118°12'0 0.0
2018-Jul-10 15:30N 33°45' W 118°12'0 0.0
2018-Jul-08 20:35N 33°45' W 118°12'0 0.0
2018-Jul-08 20:30N 33°45' W 118°12'5 9.7
2018-Jul-08 20:00N 33°40' W 118°12'612.5
2018-Jul-08 19:30N 33°35' W 118°15'612.7
2018-Jul-08 19:00N 33°29' W 118°19'611.3
2018-Jul-08 18:30N 33°24' W 118°22'0 0.6
2018-Jul-08 18:01N 33°24' W 118°22'611.9
2018-Jul-08 17:30N 33°30' W 118°19'612.3
2018-Jul-08 17:00N 33°35' W 118°16'612.4
2018-Jul-08 16:30N 33°41' W 118°12'5 9.2
2018-Jul-08 16:00N 33°45' W 118°12'0 0.0
2018-Jul-08 15:30N 33°45' W 118°12'0 0.0
2018-Jul-08 15:00N 33°45' W 118°12'0 0.0
2018-Jul-08 14:30N 33°45' W 118°12'  
Track history (hours):
 
Tides and Currents Weather Stations Pressure Air Temp Water Temp Dewpoint Dewpoint Depression Visibility Wind Speed Wind Dir Waves Ship Positions

Catalina Duchess

Owner: CATALINA CLASSIC CRUISES, INC., SAN DIEGO, CA. More information available from US FCC via Universal Licensing System and Coast Guard Vessel Documentation Center.

Last reported at 2018-Jul-18 05:19 UTC. Time now 2018-Jul-19 13:32 UTC.
Position N 33°45' W 118°12'.

Length 31 m; draft 2.5 m.

Type: Ship. MMSI: 367110260.

Date/timePositionNaut miles runAvg speedWind from/ knotsBaromVisibWave heightAir tempDewpointWater temp
2018-Jul-18 05:19N 33°45' W 118°12'1 1.6
2018-Jul-18 05:00N 33°46' W 118°12'0 0.0
2018-Jul-18 04:30N 33°46' W 118°12'0 0.0
2018-Jul-18 04:00N 33°46' W 118°12'0 0.0
2018-Jul-18 03:30N 33°46' W 118°12'1 1.0
2018-Jul-18 03:00N 33°45' W 118°12'1 1.2
2018-Jul-18 02:30N 33°45' W 118°11'1 1.6
2018-Jul-18 02:00N 33°46' W 118°12'0 0.9
2018-Jul-18 01:30N 33°45' W 118°12'0 0.0
2018-Jul-18 01:00N 33°45' W 118°12'0 0.0
2018-Jul-18 00:29N 33°45' W 118°12'0 0.0
2018-Jul-18 00:00N 33°45' W 118°12'0 0.0
2018-Jul-16 21:01N 33°45' W 118°12'0 0.0
2018-Jul-16 21:00N 33°45' W 118°12'5 9.6
2018-Jul-16 20:31N 33°40' W 118°11'713.0
2018-Jul-16 20:00N 33°35' W 118°15'612.6
2018-Jul-16 19:30N 33°29' W 118°19'6 9.3
2018-Jul-16 18:50N 33°24' W 118°22'1 1.8
2018-Jul-16 18:26N 33°24' W 118°22'512.5
2018-Jul-16 18:00N 33°29' W 118°19'612.6
2018-Jul-16 17:30N 33°35' W 118°16'612.4
2018-Jul-16 17:00N 33°40' W 118°12'510.0
2018-Jul-16 16:30N 33°45' W 118°11'0 0.1
2018-Jul-16 16:00N 33°45' W 118°12'0 0.0
2018-Jul-16 15:30N 33°45' W 118°12'0 0.0
2018-Jul-15 21:59N 33°45' W 118°12'0 0.0
2018-Jul-15 21:30N 33°45' W 118°12'0 0.0
2018-Jul-15 21:01N 33°45' W 118°12'5 9.6
2018-Jul-15 20:30N 33°40' W 118°12'713.7
2018-Jul-15 20:00N 33°34' W 118°16'713.3
2018-Jul-15 19:30N 33°28' W 118°19'511.0
2018-Jul-15 19:00N 33°24' W 118°22'3 5.7
2018-Jul-15 18:30N 33°26' W 118°21'713.2
2018-Jul-15 18:00N 33°32' W 118°18'612.7
2018-Jul-15 17:30N 33°38' W 118°14'612.9
2018-Jul-15 17:00N 33°44' W 118°11'2 3.1
2018-Jul-15 16:30N 33°45' W 118°12'0 0.0
2018-Jul-15 16:00N 33°45' W 118°12'0 0.0
2018-Jul-14 22:30N 33°45' W 118°12'0 0.1
2018-Jul-14 22:00N 33°45' W 118°12'0 0.1
2018-Jul-14 21:12N 33°45' W 118°12'0 0.0
2018-Jul-14 21:00N 33°45' W 118°12'4 8.5
2018-Jul-14 20:30N 33°41' W 118°11'713.3
2018-Jul-14 20:00N 33°35' W 118°15'713.1
2018-Jul-14 19:26N 33°29' W 118°19'511.4
2018-Jul-14 19:00N 33°24' W 118°22'0 0.0
2018-Jul-14 18:30N 33°24' W 118°22'611.4
2018-Jul-14 18:00N 33°29' W 118°19'612.9
2018-Jul-14 17:30N 33°35' W 118°15'612.6
2018-Jul-14 17:00N 33°41' W 118°12'5 9.1
2018-Jul-14 16:30N 33°45' W 118°12'0 0.0
2018-Jul-13 21:14N 33°45' W 118°12'2 6.5
2018-Jul-13 21:00N 33°44' W 118°11'612.7
2018-Jul-13 20:31N 33°38' W 118°12'712.8
2018-Jul-13 20:00N 33°32' W 118°16'612.7
2018-Jul-13 19:30N 33°26' W 118°20'3 5.5
2018-Jul-13 18:52N 33°24' W 118°22'0 0.1
2018-Jul-13 18:26N 33°24' W 118°22'512.1
2018-Jul-13 17:59N 33°28' W 118°19'612.6
2018-Jul-13 17:30N 33°34' W 118°16'612.4
2018-Jul-13 17:01N 33°39' W 118°13'611.7
2018-Jul-13 16:30N 33°45' W 118°11'0 0.6
2018-Jul-13 16:00N 33°45' W 118°12'0 0.0
2018-Jul-13 15:30N 33°45' W 118°12'  
2018-Jul-10 21:12N 33°45' W 118°12'1 5.3
2018-Jul-10 21:00N 33°44' W 118°11'612.1
2018-Jul-10 20:30N 33°39' W 118°13'611.7
2018-Jul-10 20:00N 33°33' W 118°16'612.3
2018-Jul-10 19:30N 33°28' W 118°19'5 9.9
2018-Jul-10 19:00N 33°24' W 118°22'0 0.9
2018-Jul-10 18:30N 33°24' W 118°22'612.3
2018-Jul-10 18:00N 33°30' W 118°19'612.3
2018-Jul-10 17:30N 33°35' W 118°16'612.4
2018-Jul-10 17:00N 33°41' W 118°12'5 9.1
2018-Jul-10 16:29N 33°45' W 118°12'0 0.0
2018-Jul-10 16:00N 33°45' W 118°12'0 0.0
2018-Jul-10 15:30N 33°45' W 118°12'0 0.0
2018-Jul-08 20:35N 33°45' W 118°12'0 0.0
2018-Jul-08 20:30N 33°45' W 118°12'5 9.7
2018-Jul-08 20:00N 33°40' W 118°12'612.5
2018-Jul-08 19:30N 33°35' W 118°15'612.7
2018-Jul-08 19:00N 33°29' W 118°19'611.3
2018-Jul-08 18:30N 33°24' W 118°22'0 0.6
2018-Jul-08 18:01N 33°24' W 118°22'611.9
2018-Jul-08 17:30N 33°30' W 118°19'612.3
2018-Jul-08 17:00N 33°35' W 118°16'612.4
2018-Jul-08 16:30N 33°41' W 118°12'5 9.2
2018-Jul-08 16:00N 33°45' W 118°12'0 0.0
2018-Jul-08 15:30N 33°45' W 118°12'0 0.0
2018-Jul-08 15:00N 33°45' W 118°12'0 0.0
2018-Jul-08 14:30N 33°45' W 118°12'  

Dump ship's entire track history